createdAt,value
2023-05-11T00:01:17.007Z,15.55
2023-05-11T00:03:45.127Z,15.61
2023-05-11T00:06:13.679Z,15.64
2023-05-11T00:08:42.203Z,15.58
2023-05-11T00:11:11.283Z,15.62
2023-05-11T00:13:42.566Z,15.62
2023-05-11T00:16:11.583Z,15.76
2023-05-11T00:18:40.445Z,15.42
2023-05-11T00:21:11.340Z,14.70
2023-05-11T00:23:39.697Z,15.17
2023-05-11T00:26:07.525Z,15.02
2023-05-11T00:28:35.283Z,15.05
2023-05-11T00:31:09.104Z,14.72
2023-05-11T00:33:58.937Z,14.53
2023-05-11T00:36:27.133Z,14.79
2023-05-11T00:38:58.593Z,14.52
2023-05-11T00:41:31.101Z,14.92
2023-05-11T00:43:59.317Z,14.75
2023-05-11T00:46:29.392Z,14.50
2023-05-11T00:48:58.413Z,14.48
2023-05-11T00:51:28.243Z,14.96
2023-05-11T00:53:56.270Z,15.27
2023-05-11T00:56:24.296Z,15.43
2023-05-11T00:58:53.160Z,15.34
2023-05-11T01:01:23.061Z,15.43
2023-05-11T01:03:52.986Z,14.87
2023-05-11T01:06:28.357Z,14.87
2023-05-11T01:09:01.140Z,14.91
2023-05-11T01:11:34.364Z,14.48
2023-05-11T01:14:10.420Z,14.91
2023-05-11T01:16:46.846Z,14.89
2023-05-11T01:19:22.899Z,15.14
2023-05-11T01:21:52.104Z,15.03
2023-05-11T01:24:33.946Z,15.19
2023-05-11T01:27:33.986Z,14.82
2023-05-11T01:30:27.688Z,14.79
2023-05-11T01:32:56.496Z,14.96
2023-05-11T01:35:29.575Z,15.10
2023-05-11T01:37:59.800Z,15.35
2023-05-11T01:40:30.479Z,15.23
2023-05-11T01:43:08.603Z,15.13
2023-05-11T01:45:42.863Z,15.49
2023-05-11T01:48:15.098Z,15.61
2023-05-11T01:50:51.582Z,15.39
2023-05-11T01:53:22.532Z,15.50
2023-05-11T01:55:56.907Z,14.55
2023-05-11T01:58:25.761Z,15.06
2023-05-11T02:00:56.527Z,15.44
2023-05-11T02:03:25.434Z,15.06
2023-05-11T02:05:58.399Z,14.65
2023-05-11T02:08:30.390Z,14.37
2023-05-11T02:10:59.301Z,14.92
2023-05-11T02:16:13.662Z,15.60
2023-05-11T02:18:45.661Z,15.36
2023-05-11T02:21:15.544Z,15.61
2023-05-11T02:23:46.697Z,15.19
2023-05-11T02:26:17.330Z,14.86
2023-05-11T02:28:45.709Z,15.42
2023-05-11T02:31:21.002Z,15.77
2023-05-11T02:33:57.098Z,14.69
2023-05-11T02:36:28.650Z,15.29
2023-05-11T02:39:10.298Z,15.20
2023-05-11T02:41:45.110Z,15.83
2023-05-11T02:44:16.272Z,15.22
2023-05-11T02:46:48.153Z,14.89
2023-05-11T02:49:17.068Z,14.96
2023-05-11T02:51:46.412Z,14.39
2023-05-11T02:54:14.324Z,15.15
2023-05-11T02:56:42.536Z,14.85
2023-05-11T02:59:10.785Z,14.87
2023-05-11T03:01:41.948Z,15.12
2023-05-11T03:04:15.000Z,14.93
2023-05-11T03:06:43.518Z,15.03
2023-05-11T03:09:27.160Z,15.52
2023-05-11T03:11:58.219Z,15.59
2023-05-11T03:14:26.854Z,15.37
2023-05-11T03:16:56.646Z,15.32
2023-05-11T03:19:28.914Z,15.17
2023-05-11T03:21:57.912Z,15.60
2023-05-11T03:24:28.676Z,15.55
2023-05-11T03:26:57.376Z,15.17
2023-05-11T03:29:26.958Z,15.45
2023-05-11T03:31:57.041Z,15.19
2023-05-11T03:34:33.230Z,15.23
2023-05-11T03:37:04.985Z,15.81
2023-05-11T03:39:35.030Z,16.01
2023-05-11T03:42:04.402Z,15.53
2023-05-11T03:44:35.221Z,15.25
2023-05-11T03:47:06.195Z,15.45
2023-05-11T03:49:53.795Z,14.86
2023-05-11T03:52:27.933Z,15.51
2023-05-11T03:54:58.425Z,15.91
2023-05-11T03:57:30.025Z,15.54
2023-05-11T04:00:04.062Z,15.62
2023-05-11T04:02:32.458Z,15.45
2023-05-11T04:05:20.595Z,14.97
2023-05-11T04:07:50.468Z,15.68
2023-05-11T04:10:21.207Z,15.39
2023-05-11T04:12:56.116Z,15.10
2023-05-11T04:15:27.980Z,15.32
2023-05-11T04:17:55.800Z,15.37
2023-05-11T04:20:27.488Z,15.07
2023-05-11T04:22:55.605Z,14.87
2023-05-11T04:25:27.729Z,15.42
2023-05-11T04:27:57.485Z,15.02
2023-05-11T04:30:31.470Z,14.37
2023-05-11T04:32:59.770Z,14.40
2023-05-11T04:35:29.885Z,14.60
2023-05-11T04:37:57.785Z,14.77
2023-05-11T04:40:26.683Z,15.02
2023-05-11T04:42:59.041Z,14.89
2023-05-11T04:45:37.761Z,15.18
2023-05-11T04:48:07.993Z,15.44
2023-05-11T04:50:38.145Z,15.14
2023-05-11T04:53:09.168Z,14.40
2023-05-11T04:55:37.009Z,14.91
2023-05-11T04:58:10.785Z,15.08
2023-05-11T05:00:39.468Z,15.08
2023-05-11T05:03:07.992Z,15.41
2023-05-11T05:05:37.281Z,15.51
2023-05-11T05:08:07.960Z,15.17
2023-05-11T05:10:36.535Z,15.21
2023-05-11T05:13:07.675Z,14.87
2023-05-11T05:15:35.849Z,14.48
2023-05-11T05:18:03.885Z,14.76
2023-05-11T05:20:37.401Z,15.15
2023-05-11T05:23:06.972Z,15.15
2023-05-11T05:25:38.156Z,15.64
2023-05-11T05:28:08.579Z,15.31
2023-05-11T05:30:37.521Z,15.29
2023-05-11T05:33:05.790Z,15.65
2023-05-11T05:35:35.180Z,15.57
2023-05-11T05:38:09.082Z,14.60
2023-05-11T05:40:39.507Z,14.70
2023-05-11T05:43:08.854Z,14.50
2023-05-11T05:45:40.740Z,14.22
2023-05-11T05:48:12.147Z,14.80
2023-05-11T05:50:40.281Z,15.02
2023-05-11T05:53:19.818Z,15.27
2023-05-11T05:55:49.656Z,15.63
2023-05-11T05:58:20.874Z,15.42
2023-05-11T06:00:52.503Z,15.06
2023-05-11T06:03:24.854Z,14.90
2023-05-11T06:05:58.895Z,15.01
2023-05-11T06:08:28.476Z,15.24
2023-05-11T06:10:56.857Z,15.06
2023-05-11T06:13:29.661Z,14.82
2023-05-11T06:15:58.444Z,15.23
2023-05-11T06:18:26.613Z,15.25
2023-05-11T06:20:55.147Z,15.22
2023-05-11T06:23:25.991Z,15.21
2023-05-11T06:25:55.163Z,14.53
2023-05-11T06:28:26.983Z,15.23
2023-05-11T06:30:59.410Z,15.92
2023-05-11T06:33:30.618Z,15.80
2023-05-11T06:36:02.940Z,15.64
2023-05-11T06:38:34.044Z,15.67
2023-05-11T06:41:07.024Z,14.67
2023-05-11T06:43:36.085Z,15.43
2023-05-11T06:46:04.629Z,14.78
2023-05-11T06:48:34.759Z,14.96
2023-05-11T06:51:12.086Z,14.97
2023-05-11T06:53:46.349Z,15.17
2023-05-11T06:56:18.430Z,15.38
2023-05-11T06:58:51.857Z,15.00
2023-05-11T07:01:21.076Z,15.44
2023-05-11T07:03:54.180Z,15.79
2023-05-11T07:06:28.901Z,15.72
2023-05-11T07:08:57.088Z,15.68
2023-05-11T07:11:29.385Z,15.82
2023-05-11T07:14:01.905Z,15.52
2023-05-11T07:16:32.034Z,15.38
2023-05-11T07:19:03.268Z,15.01
2023-05-11T07:21:34.455Z,14.95
2023-05-11T07:24:03.189Z,15.62
2023-05-11T07:26:36.746Z,15.90
2023-05-11T07:29:06.208Z,15.59
2023-05-11T07:31:35.968Z,15.74
2023-05-11T07:34:07.507Z,16.24
2023-05-11T07:36:35.692Z,15.88
2023-05-11T07:39:06.531Z,15.02
2023-05-11T07:41:38.090Z,15.98
2023-05-11T07:44:06.952Z,16.33
2023-05-11T07:46:35.556Z,15.20
2023-05-11T07:49:15.809Z,15.38
2023-05-11T07:51:48.989Z,16.44
2023-05-11T07:54:19.481Z,16.22
2023-05-11T07:56:51.420Z,15.81
2023-05-11T07:59:20.369Z,15.90
2023-05-11T08:01:54.591Z,16.16
2023-05-11T08:04:24.250Z,15.93
2023-05-11T08:06:53.267Z,16.22
2023-05-11T08:09:23.420Z,16.41
2023-05-11T08:11:55.048Z,16.60
2023-05-11T08:14:23.686Z,16.63
2023-05-11T08:16:52.269Z,16.32
2023-05-11T08:19:21.753Z,16.36
2023-05-11T08:21:50.170Z,16.47
2023-05-11T08:24:18.728Z,16.86
2023-05-11T08:26:46.957Z,16.74
2023-05-11T08:29:16.174Z,16.39
2023-05-11T08:31:44.294Z,16.18
2023-05-11T08:34:19.002Z,16.34
2023-05-11T08:36:49.598Z,16.92
2023-05-11T08:39:28.530Z,16.22
2023-05-11T08:42:08.904Z,16.42
2023-05-11T08:44:40.548Z,17.12
2023-05-11T08:49:43.730Z,16.40
2023-05-11T08:52:19.022Z,16.07
2023-05-11T08:54:50.509Z,16.14
2023-05-11T08:57:19.751Z,15.81
2023-05-11T08:59:50.989Z,15.85
2023-05-11T09:02:23.326Z,16.66
2023-05-11T09:04:53.767Z,16.66
2023-05-11T09:07:23.391Z,16.47
2023-05-11T09:09:51.578Z,16.11
2023-05-11T09:12:20.012Z,17.01
2023-05-11T09:14:53.054Z,16.33
2023-05-11T09:17:21.179Z,15.62
2023-05-11T09:20:09.595Z,16.21
2023-05-11T09:22:43.346Z,15.69
2023-05-11T09:25:14.725Z,14.72
2023-05-11T09:27:44.197Z,15.62
2023-05-11T09:32:59.496Z,15.76
2023-05-11T09:35:39.600Z,15.56
2023-05-11T09:38:10.115Z,16.17
2023-05-11T09:40:40.172Z,15.72
2023-05-11T09:43:18.927Z,15.93
2023-05-11T09:45:52.611Z,16.16
2023-05-11T09:48:32.266Z,15.88
2023-05-11T09:51:04.946Z,15.45
2023-05-11T09:53:37.833Z,16.41
2023-05-11T09:56:07.475Z,15.00
2023-05-11T09:58:53.760Z,13.74
2023-05-11T10:01:32.879Z,15.55
2023-05-11T10:04:21.194Z,15.73
2023-05-11T10:06:54.340Z,14.93
2023-05-11T10:09:25.706Z,15.36
2023-05-11T10:11:56.429Z,13.31
2023-05-11T10:14:25.190Z,15.29
2023-05-11T10:16:59.111Z,14.51
2023-05-11T10:19:27.425Z,15.68
2023-05-11T10:21:57.455Z,15.88
2023-05-11T10:24:30.505Z,15.15
2023-05-11T10:27:01.066Z,15.20
2023-05-11T10:29:33.396Z,14.59
2023-05-11T10:32:03.643Z,16.05
2023-05-11T10:34:34.038Z,16.17
2023-05-11T10:37:02.472Z,16.10
2023-05-11T10:39:40.220Z,15.20
2023-05-11T10:42:20.758Z,16.32
2023-05-11T10:45:02.400Z,15.91
2023-05-11T10:48:03.294Z,16.26
2023-05-11T10:50:46.352Z,16.47
2023-05-11T10:53:31.151Z,16.37
2023-05-11T10:56:12.690Z,16.14
2023-05-11T10:59:32.621Z,16.35
2023-05-11T11:01:52.261Z,16.13
2023-05-11T11:04:21.904Z,16.67
2023-05-11T11:07:06.724Z,16.14
2023-05-11T11:10:24.035Z,16.73
2023-05-11T11:12:42.959Z,17.04
2023-05-11T11:15:11.785Z,15.17
2023-05-11T11:17:41.854Z,14.84
2023-05-11T11:20:48.570Z,16.06
2023-05-11T11:24:23.678Z,16.80
2023-05-11T11:26:52.280Z,16.08
2023-05-11T11:29:21.895Z,16.68
2023-05-11T11:31:50.600Z,16.31
2023-05-11T11:34:40.088Z,16.04
2023-05-11T11:37:10.518Z,16.13
2023-05-11T11:39:55.827Z,16.52
2023-05-11T11:42:43.969Z,16.45
2023-05-11T11:45:35.988Z,16.87
2023-05-11T11:48:22.876Z,16.10
2023-05-11T11:50:58.919Z,16.85
2023-05-11T11:54:07.293Z,16.88
2023-05-11T11:56:43.883Z,16.85
2023-05-11T11:59:15.022Z,16.72
2023-05-11T12:01:46.794Z,17.03
2023-05-11T12:04:42.042Z,17.18
2023-05-11T12:07:17.703Z,17.54
2023-05-11T12:09:48.965Z,17.55
2023-05-11T12:12:48.127Z,16.89
2023-05-11T12:15:25.055Z,17.74
2023-05-11T12:17:56.079Z,17.44
2023-05-11T12:20:26.433Z,17.67
2023-05-11T12:22:56.686Z,17.59
2023-05-11T12:25:30.810Z,18.16
2023-05-11T12:28:04.620Z,17.59
2023-05-11T12:30:33.513Z,17.54
2023-05-11T12:33:13.755Z,17.33
2023-05-11T12:35:46.926Z,17.37
2023-05-11T12:38:21.971Z,17.45
2023-05-11T12:40:51.969Z,17.82
2023-05-11T12:43:23.933Z,17.58
2023-05-11T12:45:52.065Z,17.92
2023-05-11T12:48:20.495Z,17.61
2023-05-11T12:50:53.546Z,16.99
2023-05-11T12:53:22.231Z,17.13
2023-05-11T12:56:06.908Z,17.19
2023-05-11T12:58:43.066Z,17.48
2023-05-11T13:01:11.180Z,17.80
2023-05-11T13:03:50.098Z,17.69
2023-05-11T13:06:20.822Z,17.11
2023-05-11T13:08:49.151Z,17.14
2023-05-11T13:11:24.280Z,16.96
2023-05-11T13:13:54.490Z,17.29
2023-05-11T13:16:28.817Z,17.42
2023-05-11T13:18:59.324Z,17.09
2023-05-11T13:21:29.587Z,16.96
2023-05-11T13:23:58.805Z,17.50
2023-05-11T13:26:27.770Z,17.62
2023-05-11T13:29:10.041Z,18.13
2023-05-11T13:31:45.278Z,18.04
2023-05-11T13:34:15.245Z,17.97
2023-05-11T13:36:43.701Z,17.94
2023-05-11T13:39:15.422Z,17.87
2023-05-11T13:41:55.911Z,17.51
2023-05-11T13:44:26.187Z,17.14
2023-05-11T13:46:55.916Z,17.14
2023-05-11T13:49:23.958Z,17.36
2023-05-11T13:51:53.307Z,17.10
2023-05-11T13:54:21.713Z,17.74
2023-05-11T13:56:52.209Z,17.92
2023-05-11T13:59:20.139Z,17.66
2023-05-11T14:01:49.457Z,17.36
2023-05-11T14:04:22.861Z,17.68
2023-05-11T14:06:50.825Z,17.83
2023-05-11T14:09:20.876Z,18.17
2023-05-11T14:11:50.197Z,18.68
2023-05-11T14:14:20.546Z,18.65
2023-05-11T14:16:50.413Z,18.62
2023-05-11T14:19:19.781Z,17.46
2023-05-11T14:21:51.728Z,18.52
2023-05-11T14:24:21.272Z,17.82
2023-05-11T14:26:50.526Z,17.50
2023-05-11T14:29:43.404Z,17.59
2023-05-11T14:32:08.790Z,17.40
2023-05-11T14:34:36.524Z,17.87
2023-05-11T14:37:04.373Z,17.42
2023-05-11T14:39:35.352Z,17.66
2023-05-11T14:42:04.679Z,17.53
2023-05-11T14:47:20.839Z,17.60
2023-05-11T14:49:51.628Z,16.46
2023-05-11T14:52:21.731Z,17.95
2023-05-11T14:55:00.538Z,17.04
2023-05-11T14:57:31.877Z,18.00
2023-05-11T15:00:02.232Z,17.56
2023-05-11T15:02:31.397Z,17.73
2023-05-11T15:05:01.957Z,17.63
2023-05-11T15:07:34.007Z,17.98
2023-05-11T15:10:06.382Z,18.10
2023-05-11T15:12:34.536Z,17.89
2023-05-11T15:15:06.302Z,17.98
2023-05-11T15:17:38.009Z,17.88
2023-05-11T15:20:07.398Z,17.98
2023-05-11T15:22:35.208Z,18.25
2023-05-11T15:25:03.370Z,18.08
2023-05-11T15:27:31.711Z,18.32
2023-05-11T15:30:03.875Z,18.68
2023-05-11T15:32:33.888Z,18.55
2023-05-11T15:35:09.106Z,18.96
2023-05-11T15:37:37.245Z,18.16
2023-05-11T15:40:06.727Z,17.61
2023-05-11T15:42:38.077Z,18.22
2023-05-11T15:45:09.860Z,18.36
2023-05-11T15:47:38.755Z,18.65
2023-05-11T15:50:10.846Z,18.12
2023-05-11T15:52:43.623Z,18.76
2023-05-11T15:55:13.612Z,18.52
2023-05-11T15:57:41.384Z,18.30
2023-05-11T16:00:21.099Z,17.68
2023-05-11T16:02:51.995Z,17.75
2023-05-11T16:05:27.225Z,17.52
2023-05-11T16:07:55.584Z,17.72
2023-05-11T16:10:24.718Z,17.44
2023-05-11T16:12:58.936Z,17.11
2023-05-11T16:15:29.997Z,17.18
2023-05-11T16:18:18.024Z,17.00
2023-05-11T16:20:52.751Z,17.05
2023-05-11T16:23:26.474Z,16.93
2023-05-11T16:25:56.783Z,16.95
2023-05-11T16:28:29.742Z,16.81
2023-05-11T16:30:59.330Z,16.73
2023-05-11T16:33:30.236Z,16.76
2023-05-11T16:36:00.161Z,17.02
2023-05-11T16:38:33.971Z,17.05
2023-05-11T16:41:03.670Z,16.96
2023-05-11T16:43:32.946Z,17.06
2023-05-11T16:46:02.200Z,16.96
2023-05-11T16:48:32.725Z,16.62
2023-05-11T16:51:06.464Z,16.52
2023-05-11T16:53:37.471Z,16.79
2023-05-11T16:56:07.721Z,16.50
2023-05-11T16:58:38.865Z,14.82
2023-05-11T17:01:08.802Z,16.54
2023-05-11T17:03:45.974Z,16.29
2023-05-11T17:06:20.972Z,16.21
2023-05-11T17:08:55.450Z,16.01
2023-05-11T17:11:23.801Z,15.89
2023-05-11T17:13:54.451Z,16.02
2023-05-11T17:16:23.151Z,16.03
2023-05-11T17:18:58.272Z,15.78
2023-05-11T17:21:34.124Z,15.85
2023-05-11T17:24:02.284Z,15.81
2023-05-11T17:26:43.869Z,15.73
2023-05-11T17:29:32.798Z,16.08
2023-05-11T17:32:01.319Z,15.94
2023-05-11T17:34:50.363Z,15.81
2023-05-11T17:37:31.334Z,15.85
2023-05-11T17:40:06.468Z,15.73
2023-05-11T17:42:38.676Z,15.73
2023-05-11T17:45:07.773Z,15.80
2023-05-11T17:47:39.487Z,15.77
2023-05-11T17:50:10.862Z,15.88
2023-05-11T17:52:43.334Z,15.68
2023-05-11T17:55:13.731Z,15.94
2023-05-11T17:57:42.157Z,15.96
2023-05-11T18:00:14.867Z,15.99
2023-05-11T18:02:45.243Z,15.97
2023-05-11T18:05:16.143Z,15.88
2023-05-11T18:07:47.038Z,15.81
2023-05-11T18:10:19.955Z,15.27
2023-05-11T18:12:48.909Z,15.62
2023-05-11T18:15:17.337Z,15.64
2023-05-11T18:17:49.443Z,15.57
2023-05-11T18:20:20.685Z,15.56
2023-05-11T18:22:51.220Z,15.45
2023-05-11T18:25:19.418Z,15.55
2023-05-11T18:27:56.144Z,15.68
2023-05-11T18:30:30.730Z,15.67
2023-05-11T18:33:04.060Z,15.68
2023-05-11T18:35:33.669Z,15.70
2023-05-11T18:38:04.947Z,15.63
2023-05-11T18:40:37.876Z,15.54
2023-05-11T18:43:06.097Z,15.59
2023-05-11T18:45:46.996Z,15.08
2023-05-11T18:48:15.213Z,15.49
2023-05-11T18:50:44.150Z,15.45
2023-05-11T18:53:13.467Z,15.24
2023-05-11T18:55:52.616Z,15.13
2023-05-11T18:58:24.667Z,15.21
2023-05-11T19:00:55.393Z,15.05
2023-05-11T19:03:26.904Z,14.79
2023-05-11T19:05:55.347Z,14.85
2023-05-11T19:08:24.908Z,14.76
2023-05-11T19:10:52.796Z,14.84
2023-05-11T19:13:22.982Z,14.88
2023-05-11T19:15:55.488Z,15.08
2023-05-11T19:18:29.636Z,15.18
2023-05-11T19:21:00.734Z,15.28
2023-05-11T19:23:41.904Z,15.02
2023-05-11T19:26:12.017Z,15.22
2023-05-11T19:28:44.191Z,14.94
2023-05-11T19:31:17.294Z,14.74
2023-05-11T19:33:47.241Z,14.79
2023-05-11T19:36:18.621Z,14.61
2023-05-11T19:38:52.396Z,14.92
2023-05-11T19:41:23.782Z,15.04
2023-05-11T19:43:51.605Z,14.92
2023-05-11T19:46:24.689Z,15.04
2023-05-11T19:48:55.419Z,15.00
2023-05-11T19:51:26.786Z,15.02
2023-05-11T19:54:16.804Z,15.00
2023-05-11T19:56:45.216Z,14.97
2023-05-11T19:59:13.369Z,14.85
2023-05-11T20:01:43.883Z,14.59
2023-05-11T20:04:12.787Z,14.59
2023-05-11T20:06:43.028Z,14.59
2023-05-11T20:09:15.799Z,14.66
2023-05-11T20:11:46.135Z,14.69
2023-05-11T20:14:18.156Z,14.92
2023-05-11T20:16:49.990Z,14.91
2023-05-11T20:19:18.336Z,15.14
2023-05-11T20:21:53.130Z,14.89
2023-05-11T20:24:26.442Z,14.70
2023-05-11T20:27:00.024Z,14.82
2023-05-11T20:29:30.599Z,14.92
2023-05-11T20:31:58.588Z,14.95
2023-05-11T20:34:26.990Z,14.86
2023-05-11T20:36:55.185Z,14.74
2023-05-11T20:39:25.916Z,14.35
2023-05-11T20:41:54.826Z,14.69
2023-05-11T20:44:22.969Z,14.70
2023-05-11T20:46:52.908Z,14.73
2023-05-11T20:49:37.628Z,8.31
2023-05-11T20:52:12.896Z,14.52
2023-05-11T20:54:42.614Z,14.98
2023-05-11T20:57:13.352Z,14.96
2023-05-11T21:02:16.372Z,14.93
2023-05-11T21:04:46.756Z,14.94
2023-05-11T21:07:14.539Z,14.67
2023-05-11T21:09:49.916Z,14.69
2023-05-11T21:12:21.950Z,14.67
2023-05-11T21:14:57.051Z,14.22
2023-05-11T21:17:25.864Z,14.68
2023-05-11T21:19:56.480Z,14.52
2023-05-11T21:22:28.443Z,14.37
2023-05-11T21:24:57.797Z,14.34
2023-05-11T21:27:25.895Z,14.52
2023-05-11T21:29:53.747Z,14.66
2023-05-11T21:32:24.666Z,14.91
2023-05-11T21:34:52.656Z,14.80
2023-05-11T21:37:21.204Z,14.93
2023-05-11T21:39:49.576Z,15.04
2023-05-11T21:42:21.096Z,14.95
2023-05-11T21:45:11.782Z,14.83
2023-05-11T21:47:43.499Z,15.02
2023-05-11T21:50:16.104Z,15.05
2023-05-11T21:52:44.231Z,14.99
2023-05-11T21:55:15.113Z,14.91
2023-05-11T21:57:45.084Z,14.84
2023-05-11T22:00:18.927Z,14.72
2023-05-11T22:02:51.278Z,14.70
2023-05-11T22:05:19.938Z,14.73
2023-05-11T22:07:48.257Z,14.98
2023-05-11T22:10:16.661Z,15.03
2023-05-11T22:12:49.392Z,15.01
2023-05-11T22:15:17.615Z,15.03
2023-05-11T22:17:50.794Z,15.07
2023-05-11T22:20:22.062Z,15.03
2023-05-11T22:22:50.115Z,14.94
2023-05-11T22:25:20.333Z,14.93
2023-05-11T22:27:54.102Z,15.06
2023-05-11T22:30:23.247Z,15.09
2023-05-11T22:32:53.101Z,15.28
2023-05-11T22:35:21.217Z,15.30
2023-05-11T22:37:54.385Z,15.57
2023-05-11T22:40:23.017Z,15.73
2023-05-11T22:42:54.357Z,15.77
2023-05-11T22:45:25.531Z,15.39
2023-05-11T22:47:54.331Z,15.46
2023-05-11T22:50:22.557Z,15.52
2023-05-11T22:52:53.556Z,15.34
2023-05-11T22:55:23.312Z,15.37
2023-05-11T22:57:57.198Z,15.08
2023-05-11T23:00:25.713Z,15.23
2023-05-11T23:02:56.647Z,15.34
2023-05-11T23:05:25.465Z,15.26
2023-05-11T23:07:55.982Z,15.06
2023-05-11T23:10:23.922Z,15.07
2023-05-11T23:12:54.345Z,13.56
2023-05-11T23:15:24.591Z,15.04
2023-05-11T23:17:52.929Z,15.26
2023-05-11T23:20:22.840Z,15.22
2023-05-11T23:22:50.923Z,15.25
2023-05-11T23:25:20.915Z,15.30
2023-05-11T23:27:50.161Z,15.36
2023-05-11T23:30:20.616Z,15.30
2023-05-11T23:32:49.189Z,15.24
2023-05-11T23:35:17.718Z,15.04
2023-05-11T23:37:47.848Z,14.92
2023-05-11T23:40:21.622Z,14.76
2023-05-11T23:42:54.474Z,14.83
2023-05-11T23:45:28.052Z,14.92
2023-05-11T23:48:03.086Z,14.96
2023-05-11T23:50:31.349Z,14.71
2023-05-11T23:52:59.952Z,14.74
2023-05-11T23:55:30.962Z,14.44
2023-05-11T23:57:59.321Z,13.39
